sensor_id;sensor_type;location;lat;lon;timestamp;pressure;altitude;pressure_sealevel;temperature;humidity
20115;BME280;10218;42.874;25.320;2023-02-22T00:01:02;97014.41;;;11.61;49.92
20115;BME280;10218;42.874;25.320;2023-02-22T00:03:34;97011.22;;;11.80;49.17
20115;BME280;10218;42.874;25.320;2023-02-22T00:06:04;97016.31;;;11.90;48.62
20115;BME280;10218;42.874;25.320;2023-02-22T00:08:35;97012.56;;;11.62;49.43
20115;BME280;10218;42.874;25.320;2023-02-22T00:11:06;97009.47;;;11.73;49.35
20115;BME280;10218;42.874;25.320;2023-02-22T00:13:39;97010.31;;;11.88;48.72
20115;BME280;10218;42.874;25.320;2023-02-22T00:16:16;97006.88;;;11.79;49.00
20115;BME280;10218;42.874;25.320;2023-02-22T00:18:47;97007.28;;;10.70;53.19
20115;BME280;10218;42.874;25.320;2023-02-22T00:21:16;97015.09;;;11.40;50.42
20115;BME280;10218;42.874;25.320;2023-02-22T00:23:45;96999.63;;;11.50;50.43
20115;BME280;10218;42.874;25.320;2023-02-22T00:26:17;97001.94;;;11.16;51.31
20115;BME280;10218;42.874;25.320;2023-02-22T00:28:52;96998.84;;;11.04;52.48
20115;BME280;10218;42.874;25.320;2023-02-22T00:31:20;97003.59;;;10.94;52.34
20115;BME280;10218;42.874;25.320;2023-02-22T00:33:50;97008.22;;;11.23;51.06
20115;BME280;10218;42.874;25.320;2023-02-22T00:36:21;97001.62;;;11.48;50.39
20115;BME280;10218;42.874;25.320;2023-02-22T00:38:48;97000.84;;;11.25;50.90
20115;BME280;10218;42.874;25.320;2023-02-22T00:41:19;97004.66;;;11.31;50.74
20115;BME280;10218;42.874;25.320;2023-02-22T00:43:49;97000.84;;;11.25;50.76
20115;BME280;10218;42.874;25.320;2023-02-22T00:46:19;97003.69;;;11.24;51.48
20115;BME280;10218;42.874;25.320;2023-02-22T00:48:45;97000.47;;;11.28;51.06
20115;BME280;10218;42.874;25.320;2023-02-22T00:51:13;96993.00;;;11.24;50.83
20115;BME280;10218;42.874;25.320;2023-02-22T00:53:43;97003.94;;;11.37;51.05
20115;BME280;10218;42.874;25.320;2023-02-22T00:56:13;97000.00;;;11.47;50.59
20115;BME280;10218;42.874;25.320;2023-02-22T00:58:41;96998.91;;;11.19;52.28
20115;BME280;10218;42.874;25.320;2023-02-22T01:01:12;96998.69;;;11.06;52.15
20115;BME280;10218;42.874;25.320;2023-02-22T01:03:40;96996.88;;;10.98;52.44
20115;BME280;10218;42.874;25.320;2023-02-22T01:06:07;97001.00;;;10.86;52.87
20115;BME280;10218;42.874;25.320;2023-02-22T01:08:34;97000.97;;;10.63;53.99
20115;BME280;10218;42.874;25.320;2023-02-22T01:11:02;96992.75;;;10.42;56.47
20115;BME280;10218;42.874;25.320;2023-02-22T01:13:29;96994.56;;;10.72;53.54
20115;BME280;10218;42.874;25.320;2023-02-22T01:15:58;97009.47;;;11.12;52.00
20115;BME280;10218;42.874;25.320;2023-02-22T01:18:28;97016.59;;;10.97;52.82
20115;BME280;10218;42.874;25.320;2023-02-22T01:20:55;97006.69;;;11.06;52.73
20115;BME280;10218;42.874;25.320;2023-02-22T01:23:22;96999.06;;;10.49;54.94
20115;BME280;10218;42.874;25.320;2023-02-22T01:25:49;96990.13;;;10.34;55.62
20115;BME280;10218;42.874;25.320;2023-02-22T01:28:16;96993.00;;;10.55;55.15
20115;BME280;10218;42.874;25.320;2023-02-22T01:30:43;96997.34;;;10.56;54.45
20115;BME280;10218;42.874;25.320;2023-02-22T01:33:14;96990.97;;;10.57;55.14
20115;BME280;10218;42.874;25.320;2023-02-22T01:35:43;96992.19;;;10.55;54.51
20115;BME280;10218;42.874;25.320;2023-02-22T01:38:12;96989.47;;;10.86;53.62
20115;BME280;10218;42.874;25.320;2023-02-22T01:40:42;96972.19;;;10.20;55.63
20115;BME280;10218;42.874;25.320;2023-02-22T01:46:31;96964.69;;;10.46;54.13
20115;BME280;10218;42.874;25.320;2023-02-22T01:49:02;96989.66;;;10.61;54.41
20115;BME280;10218;42.874;25.320;2023-02-22T01:51:39;96988.19;;;10.12;56.77
20115;BME280;10218;42.874;25.320;2023-02-22T01:54:17;96995.16;;;10.29;56.09
20115;BME280;10218;42.874;25.320;2023-02-22T01:59:45;96996.69;;;10.15;56.84
20115;BME280;10218;42.874;25.320;2023-02-22T02:02:17;97005.56;;;10.47;55.68
20115;BME280;10218;42.874;25.320;2023-02-22T02:04:45;97005.63;;;10.69;54.25
20115;BME280;10218;42.874;25.320;2023-02-22T02:07:18;97004.41;;;10.49;54.62
20115;BME280;10218;42.874;25.320;2023-02-22T02:10:07;97001.50;;;10.59;54.41
20115;BME280;10218;42.874;25.320;2023-02-22T02:12:45;96993.31;;;10.60;54.43
20115;BME280;10218;42.874;25.320;2023-02-22T02:17:48;96996.75;;;10.69;53.58
20115;BME280;10218;42.874;25.320;2023-02-22T02:20:45;96993.84;;;10.56;54.25
20115;BME280;10218;42.874;25.320;2023-02-22T02:40:25;97012.53;;;9.70;60.19
20115;BME280;10218;42.874;25.320;2023-02-22T02:45:44;97011.88;;;8.79;77.08
20115;BME280;10218;42.874;25.320;2023-02-22T02:48:16;97016.41;;;8.78;78.80
20115;BME280;10218;42.874;25.320;2023-02-22T02:50:48;97008.81;;;8.49;83.46
20115;BME280;10218;42.874;25.320;2023-02-22T02:53:20;97005.63;;;8.30;90.78
20115;BME280;10218;42.874;25.320;2023-02-22T02:55:48;97020.63;;;8.39;87.96
20115;BME280;10218;42.874;25.320;2023-02-22T02:58:22;97013.31;;;8.49;87.13
20115;BME280;10218;42.874;25.320;2023-02-22T03:00:55;97024.47;;;8.44;87.54
20115;BME280;10218;42.874;25.320;2023-02-22T03:06:39;97030.59;;;8.03;96.56
20115;BME280;10218;42.874;25.320;2023-02-22T03:12:31;96996.72;;;7.71;99.52
20115;BME280;10218;42.874;25.320;2023-02-22T03:23:50;97016.56;;;7.59;100.00
20115;BME280;10218;42.874;25.320;2023-02-22T03:26:30;97032.78;;;7.48;100.00
20115;BME280;10218;42.874;25.320;2023-02-22T03:29:04;97031.19;;;7.37;100.00
20115;BME280;10218;42.874;25.320;2023-02-22T03:31:38;97030.47;;;7.27;100.00
20115;BME280;10218;42.874;25.320;2023-02-22T03:34:15;97026.06;;;7.36;100.00
20115;BME280;10218;42.874;25.320;2023-02-22T03:36:56;97025.28;;;7.69;100.00
20115;BME280;10218;42.874;25.320;2023-02-22T03:39:27;97026.94;;;7.44;100.00
20115;BME280;10218;42.874;25.320;2023-02-22T03:42:06;97024.16;;;7.28;100.00
20115;BME280;10218;42.874;25.320;2023-02-22T03:44:38;97032.84;;;7.12;100.00
20115;BME280;10218;42.874;25.320;2023-02-22T03:47:11;97024.97;;;7.03;100.00
20115;BME280;10218;42.874;25.320;2023-02-22T03:49:48;97025.19;;;7.09;100.00
20115;BME280;10218;42.874;25.320;2023-02-22T03:52:18;97023.31;;;7.27;100.00
20115;BME280;10218;42.874;25.320;2023-02-22T03:54:50;97027.44;;;7.22;100.00
20115;BME280;10218;42.874;25.320;2023-02-22T03:57:28;97029.37;;;6.94;100.00
20115;BME280;10218;42.874;25.320;2023-02-22T03:59:56;97025.06;;;6.93;100.00
20115;BME280;10218;42.874;25.320;2023-02-22T04:02:24;97026.34;;;6.71;100.00
20115;BME280;10218;42.874;25.320;2023-02-22T04:04:52;97027.50;;;6.69;100.00
20115;BME280;10218;42.874;25.320;2023-02-22T04:07:21;97014.34;;;6.67;100.00
20115;BME280;10218;42.874;25.320;2023-02-22T04:09:48;97029.44;;;7.02;100.00
20115;BME280;10218;42.874;25.320;2023-02-22T04:12:16;97032.19;;;7.10;100.00
20115;BME280;10218;42.874;25.320;2023-02-22T04:14:48;97014.59;;;6.74;100.00
20115;BME280;10218;42.874;25.320;2023-02-22T04:17:15;97016.09;;;6.59;100.00
20115;BME280;10218;42.874;25.320;2023-02-22T04:19:44;97021.69;;;6.56;100.00
20115;BME280;10218;42.874;25.320;2023-02-22T04:22:12;97025.00;;;6.85;100.00
20115;BME280;10218;42.874;25.320;2023-02-22T04:24:39;97026.50;;;6.70;100.00
20115;BME280;10218;42.874;25.320;2023-02-22T04:27:07;97020.44;;;6.77;100.00
20115;BME280;10218;42.874;25.320;2023-02-22T04:29:34;97018.13;;;6.47;100.00
20115;BME280;10218;42.874;25.320;2023-02-22T04:32:05;97024.22;;;6.57;100.00
20115;BME280;10218;42.874;25.320;2023-02-22T04:34:33;97020.16;;;6.35;100.00
20115;BME280;10218;42.874;25.320;2023-02-22T04:37:01;97022.28;;;6.14;100.00
20115;BME280;10218;42.874;25.320;2023-02-22T04:39:28;97024.41;;;6.28;100.00
20115;BME280;10218;42.874;25.320;2023-02-22T04:41:55;97023.00;;;6.34;100.00
20115;BME280;10218;42.874;25.320;2023-02-22T04:44:28;97020.03;;;6.37;100.00
20115;BME280;10218;42.874;25.320;2023-02-22T04:46:58;97021.69;;;6.56;100.00
20115;BME280;10218;42.874;25.320;2023-02-22T04:49:28;97022.81;;;6.35;100.00
20115;BME280;10218;42.874;25.320;2023-02-22T04:51:57;97020.03;;;6.10;100.00
20115;BME280;10218;42.874;25.320;2023-02-22T04:54:25;97030.56;;;6.29;100.00
20115;BME280;10218;42.874;25.320;2023-02-22T04:56:51;97025.84;;;6.23;100.00
20115;BME280;10218;42.874;25.320;2023-02-22T04:59:19;97015.50;;;6.20;100.00
20115;BME280;10218;42.874;25.320;2023-02-22T05:01:50;97024.22;;;6.12;100.00
20115;BME280;10218;42.874;25.320;2023-02-22T05:04:18;97036.66;;;6.12;100.00
20115;BME280;10218;42.874;25.320;2023-02-22T05:06:47;97030.63;;;6.19;100.00
20115;BME280;10218;42.874;25.320;2023-02-22T05:09:14;97029.84;;;6.27;100.00
20115;BME280;10218;42.874;25.320;2023-02-22T05:11:41;97029.34;;;6.41;100.00
20115;BME280;10218;42.874;25.320;2023-02-22T05:14:09;97018.72;;;5.96;100.00
20115;BME280;10218;42.874;25.320;2023-02-22T05:16:38;97034.56;;;6.06;100.00
20115;BME280;10218;42.874;25.320;2023-02-22T05:19:06;97038.66;;;6.00;100.00
20115;BME280;10218;42.874;25.320;2023-02-22T05:21:33;97036.44;;;6.23;100.00
20115;BME280;10218;42.874;25.320;2023-02-22T05:24:00;97044.75;;;6.37;100.00
20115;BME280;10218;42.874;25.320;2023-02-22T05:26:27;97040.84;;;5.68;100.00
20115;BME280;10218;42.874;25.320;2023-02-22T05:28:55;97055.22;;;5.65;100.00
20115;BME280;10218;42.874;25.320;2023-02-22T05:31:23;97052.25;;;5.78;100.00
20115;BME280;10218;42.874;25.320;2023-02-22T05:33:51;97058.72;;;5.66;100.00
20115;BME280;10218;42.874;25.320;2023-02-22T05:36:18;97056.38;;;5.99;100.00
20115;BME280;10218;42.874;25.320;2023-02-22T05:38:46;97053.31;;;5.94;100.00
20115;BME280;10218;42.874;25.320;2023-02-22T05:41:13;97061.28;;;5.85;100.00
20115;BME280;10218;42.874;25.320;2023-02-22T05:43:41;97056.41;;;5.80;100.00
20115;BME280;10218;42.874;25.320;2023-02-22T05:46:09;97073.75;;;5.75;100.00
20115;BME280;10218;42.874;25.320;2023-02-22T05:48:37;97065.03;;;6.01;100.00
20115;BME280;10218;42.874;25.320;2023-02-22T05:51:05;97065.91;;;5.92;100.00
20115;BME280;10218;42.874;25.320;2023-02-22T05:53:38;97071.47;;;5.99;100.00
20115;BME280;10218;42.874;25.320;2023-02-22T05:56:06;97075.31;;;6.05;100.00
20115;BME280;10218;42.874;25.320;2023-02-22T05:58:34;97083.75;;;5.90;100.00
20115;BME280;10218;42.874;25.320;2023-02-22T06:01:01;97084.53;;;6.10;100.00
20115;BME280;10218;42.874;25.320;2023-02-22T06:03:29;97081.19;;;6.08;100.00
20115;BME280;10218;42.874;25.320;2023-02-22T06:05:56;97096.22;;;6.17;100.00
20115;BME280;10218;42.874;25.320;2023-02-22T06:08:23;97093.66;;;6.25;100.00
20115;BME280;10218;42.874;25.320;2023-02-22T06:10:51;97097.84;;;6.28;100.00
20115;BME280;10218;42.874;25.320;2023-02-22T06:13:18;97097.50;;;6.40;100.00
20115;BME280;10218;42.874;25.320;2023-02-22T06:15:45;97102.13;;;6.38;100.00
20115;BME280;10218;42.874;25.320;2023-02-22T06:18:14;97093.19;;;6.12;100.00
20115;BME280;10218;42.874;25.320;2023-02-22T06:20:41;97098.19;;;6.42;100.00
20115;BME280;10218;42.874;25.320;2023-02-22T06:23:08;97094.66;;;6.52;100.00
20115;BME280;10218;42.874;25.320;2023-02-22T06:25:36;97105.47;;;7.39;100.00
20115;BME280;10218;42.874;25.320;2023-02-22T06:28:04;97105.50;;;7.64;100.00
20115;BME280;10218;42.874;25.320;2023-02-22T06:30:31;97099.25;;;7.99;100.00
20115;BME280;10218;42.874;25.320;2023-02-22T06:33:01;97105.41;;;8.00;100.00
20115;BME280;10218;42.874;25.320;2023-02-22T06:35:29;97113.16;;;7.93;100.00
20115;BME280;10218;42.874;25.320;2023-02-22T06:37:56;97105.03;;;7.69;100.00
20115;BME280;10218;42.874;25.320;2023-02-22T06:40:25;97095.94;;;7.54;100.00
20115;BME280;10218;42.874;25.320;2023-02-22T06:42:57;97108.94;;;7.83;100.00
20115;BME280;10218;42.874;25.320;2023-02-22T06:45:26;97103.78;;;8.33;100.00
20115;BME280;10218;42.874;25.320;2023-02-22T06:47:54;97091.13;;;8.35;100.00
20115;BME280;10218;42.874;25.320;2023-02-22T06:50:28;97088.87;;;8.48;100.00
20115;BME280;10218;42.874;25.320;2023-02-22T06:52:56;97088.03;;;8.47;100.00
20115;BME280;10218;42.874;25.320;2023-02-22T06:55:27;97077.69;;;9.35;96.26
20115;BME280;10218;42.874;25.320;2023-02-22T06:57:54;97077.06;;;10.98;78.25
20115;BME280;10218;42.874;25.320;2023-02-22T07:00:24;97077.66;;;11.17;73.31
20115;BME280;10218;42.874;25.320;2023-02-22T07:02:52;97079.50;;;12.28;65.62
20115;BME280;10218;42.874;25.320;2023-02-22T07:05:22;97074.84;;;13.38;59.12
20115;BME280;10218;42.874;25.320;2023-02-22T07:07:53;97075.25;;;14.12;54.97
20115;BME280;10218;42.874;25.320;2023-02-22T07:10:21;97049.72;;;14.57;53.81
20115;BME280;10218;42.874;25.320;2023-02-22T07:12:51;97071.63;;;15.02;52.29
20115;BME280;10218;42.874;25.320;2023-02-22T07:15:21;97068.72;;;15.10;50.70
20115;BME280;10218;42.874;25.320;2023-02-22T07:17:56;97059.22;;;15.14;50.40
20115;BME280;10218;42.874;25.320;2023-02-22T07:20:27;97063.91;;;15.72;48.98
20115;BME280;10218;42.874;25.320;2023-02-22T07:22:54;97070.94;;;15.73;48.69
20115;BME280;10218;42.874;25.320;2023-02-22T07:25:22;97068.66;;;15.97;48.20
20115;BME280;10218;42.874;25.320;2023-02-22T07:27:50;97072.16;;;16.17;47.33
20115;BME280;10218;42.874;25.320;2023-02-22T07:30:22;97070.72;;;16.14;47.26
20115;BME280;10218;42.874;25.320;2023-02-22T07:32:58;97070.28;;;16.31;47.04
20115;BME280;10218;42.874;25.320;2023-02-22T07:35:44;97056.12;;;16.61;47.03
20115;BME280;10218;42.874;25.320;2023-02-22T07:38:14;97052.41;;;17.07;45.45
20115;BME280;10218;42.874;25.320;2023-02-22T07:40:43;97053.81;;;17.47;44.88
20115;BME280;10218;42.874;25.320;2023-02-22T07:43:19;97069.94;;;17.29;44.12
20115;BME280;10218;42.874;25.320;2023-02-22T07:45:48;97057.13;;;17.18;44.48
20115;BME280;10218;42.874;25.320;2023-02-22T07:48:19;97058.91;;;16.93;44.29
20115;BME280;10218;42.874;25.320;2023-02-22T07:50:48;97073.38;;;16.60;45.00
20115;BME280;10218;42.874;25.320;2023-02-22T07:53:19;97061.13;;;17.09;44.35
20115;BME280;10218;42.874;25.320;2023-02-22T07:55:47;97059.81;;;17.18;44.18
20115;BME280;10218;42.874;25.320;2023-02-22T07:58:19;97060.31;;;18.03;43.37
20115;BME280;10218;42.874;25.320;2023-02-22T08:00:48;97062.62;;;17.36;44.10
20115;BME280;10218;42.874;25.320;2023-02-22T08:03:18;97047.88;;;17.01;44.25
20115;BME280;10218;42.874;25.320;2023-02-22T08:05:49;97069.72;;;17.31;43.55
20115;BME280;10218;42.874;25.320;2023-02-22T08:08:17;97054.25;;;17.13;43.43
20115;BME280;10218;42.874;25.320;2023-02-22T08:10:46;97064.38;;;17.24;43.38
20115;BME280;10218;42.874;25.320;2023-02-22T08:13:14;97061.34;;;17.45;42.83
20115;BME280;10218;42.874;25.320;2023-02-22T08:15:41;97058.25;;;18.23;42.16
20115;BME280;10218;42.874;25.320;2023-02-22T08:18:12;97050.97;;;17.99;42.09
20115;BME280;10218;42.874;25.320;2023-02-22T08:20:42;97065.84;;;18.32;41.92
20115;BME280;10218;42.874;25.320;2023-02-22T08:23:11;97060.94;;;17.42;42.33
20115;BME280;10218;42.874;25.320;2023-02-22T08:25:38;97067.59;;;18.02;41.99
20115;BME280;10218;42.874;25.320;2023-02-22T08:28:11;97058.25;;;18.84;40.58
20115;BME280;10218;42.874;25.320;2023-02-22T08:30:41;97062.38;;;18.25;41.05
20115;BME280;10218;42.874;25.320;2023-02-22T08:33:15;97050.44;;;19.24;39.76
20115;BME280;10218;42.874;25.320;2023-02-22T08:35:47;97048.16;;;18.55;41.06
20115;BME280;10218;42.874;25.320;2023-02-22T08:38:24;97052.50;;;18.56;41.23
20115;BME280;10218;42.874;25.320;2023-02-22T08:40:52;97067.03;;;18.61;40.95
20115;BME280;10218;42.874;25.320;2023-02-22T08:43:20;97063.69;;;18.96;39.82
20115;BME280;10218;42.874;25.320;2023-02-22T08:45:48;97063.00;;;19.78;38.56
20115;BME280;10218;42.874;25.320;2023-02-22T08:48:17;97061.16;;;19.49;39.05
20115;BME280;10218;42.874;25.320;2023-02-22T08:50:44;97065.84;;;18.32;40.41
20115;BME280;10218;42.874;25.320;2023-02-22T08:53:12;97053.19;;;18.69;39.87
20115;BME280;10218;42.874;25.320;2023-02-22T08:55:41;97053.19;;;19.66;39.26
20115;BME280;10218;42.874;25.320;2023-02-22T08:58:08;97045.91;;;18.88;39.48
20115;BME280;10218;42.874;25.320;2023-02-22T09:00:37;97055.03;;;19.53;38.43
20115;BME280;10218;42.874;25.320;2023-02-22T09:03:08;97044.41;;;20.17;37.84
20115;BME280;10218;42.874;25.320;2023-02-22T09:05:36;97047.22;;;20.68;36.83
20115;BME280;10218;42.874;25.320;2023-02-22T09:08:04;97057.41;;;18.84;38.39
20115;BME280;10218;42.874;25.320;2023-02-22T09:10:33;97054.81;;;19.55;38.02
20115;BME280;10218;42.874;25.320;2023-02-22T09:13:01;97061.06;;;20.32;37.44
20115;BME280;10218;42.874;25.320;2023-02-22T09:15:30;97061.88;;;20.21;37.19
20115;BME280;10218;42.874;25.320;2023-02-22T09:17:59;97073.50;;;19.45;37.76
20115;BME280;10218;42.874;25.320;2023-02-22T09:20:29;97064.50;;;20.39;36.21
20115;BME280;10218;42.874;25.320;2023-02-22T09:22:56;97058.81;;;20.52;36.17
20115;BME280;10218;42.874;25.320;2023-02-22T09:25:26;97061.41;;;19.59;37.21
20115;BME280;10218;42.874;25.320;2023-02-22T09:27:53;97044.31;;;21.66;34.50
20115;BME280;10218;42.874;25.320;2023-02-22T09:30:31;97044.16;;;20.06;36.61
20115;BME280;10218;42.874;25.320;2023-02-22T09:35:31;97049.47;;;23.07;33.30
20115;BME280;10218;42.874;25.320;2023-02-22T09:38:04;97040.53;;;23.11;32.30
20115;BME280;10218;42.874;25.320;2023-02-22T09:43:51;97055.34;;;23.96;31.46
20115;BME280;10218;42.874;25.320;2023-02-22T09:46:48;97050.16;;;22.97;32.91
20115;BME280;10218;42.874;25.320;2023-02-22T09:52:10;97036.22;;;25.17;29.60
20115;BME280;10218;42.874;25.320;2023-02-22T09:54:50;97036.72;;;23.56;31.41
20115;BME280;10218;42.874;25.320;2023-02-22T09:57:35;97048.12;;;20.97;34.23
20115;BME280;10218;42.874;25.320;2023-02-22T10:00:30;97042.00;;;21.30;34.51
20115;BME280;10218;42.874;25.320;2023-02-22T10:03:23;97033.53;;;24.27;31.24
20115;BME280;10218;42.874;25.320;2023-02-22T10:06:01;97034.91;;;23.66;30.97
20115;BME280;10218;42.874;25.320;2023-02-22T10:08:33;97042.41;;;23.32;31.26
20115;BME280;10218;42.874;25.320;2023-02-22T10:27:31;96997.03;;;22.94;32.33
20115;BME280;10218;42.874;25.320;2023-02-22T10:30:19;96984.25;;;25.01;29.69
20115;BME280;10218;42.874;25.320;2023-02-22T10:35:29;96989.06;;;25.82;29.39
20115;BME280;10218;42.874;25.320;2023-02-22T10:38:05;96979.12;;;25.30;28.88
20115;BME280;10218;42.874;25.320;2023-02-22T10:43:37;96985.56;;;23.73;29.97
20115;BME280;10218;42.874;25.320;2023-02-22T10:46:09;96974.78;;;25.39;28.85
20115;BME280;10218;42.874;25.320;2023-02-22T10:48:39;96982.28;;;23.44;30.67
20115;BME280;10218;42.874;25.320;2023-02-22T10:51:09;96973.06;;;22.96;30.86
20115;BME280;10218;42.874;25.320;2023-02-22T10:53:37;96984.81;;;23.46;30.30
20115;BME280;10218;42.874;25.320;2023-02-22T10:56:19;96974.03;;;22.47;31.77
20115;BME280;10218;42.874;25.320;2023-02-22T10:58:55;96970.22;;;22.65;31.59
20115;BME280;10218;42.874;25.320;2023-02-22T11:01:36;96961.84;;;23.15;31.31
20115;BME280;10218;42.874;25.320;2023-02-22T11:04:13;96957.16;;;23.10;31.16
20115;BME280;10218;42.874;25.320;2023-02-22T11:06:44;96956.41;;;24.47;29.38
20115;BME280;10218;42.874;25.320;2023-02-22T11:09:20;96949.47;;;24.29;29.73
20115;BME280;10218;42.874;25.320;2023-02-22T11:12:08;96940.62;;;25.87;29.18
20115;BME280;10218;42.874;25.320;2023-02-22T11:14:42;96940.88;;;25.50;28.55
20115;BME280;10218;42.874;25.320;2023-02-22T11:17:17;96936.94;;;26.58;27.17
20115;BME280;10218;42.874;25.320;2023-02-22T11:19:47;96932.38;;;26.13;27.25
20115;BME280;10218;42.874;25.320;2023-02-22T11:22:25;96928.53;;;25.28;28.41
20115;BME280;10218;42.874;25.320;2023-02-22T11:25:01;96924.78;;;26.94;27.17
20115;BME280;10218;42.874;25.320;2023-02-22T11:27:42;96931.22;;;25.02;27.88
20115;BME280;10218;42.874;25.320;2023-02-22T11:30:19;96914.66;;;25.70;27.39
20115;BME280;10218;42.874;25.320;2023-02-22T11:32:52;96930.75;;;25.96;27.32
20115;BME280;10218;42.874;25.320;2023-02-22T11:38:22;96923.69;;;25.90;27.23
20115;BME280;10218;42.874;25.320;2023-02-22T11:43:48;96930.97;;;23.68;30.09
20115;BME280;10218;42.874;25.320;2023-02-22T11:46:23;96920.06;;;26.20;27.38
20115;BME280;10218;42.874;25.320;2023-02-22T11:51:44;96914.28;;;25.05;28.29
20115;BME280;10218;42.874;25.320;2023-02-22T12:06:20;96908.31;;;26.15;26.86
20115;BME280;10218;42.874;25.320;2023-02-22T12:09:07;96911.09;;;25.84;27.92
20115;BME280;10218;42.874;25.320;2023-02-22T12:14:38;96906.09;;;28.13;25.31
20115;BME280;10218;42.874;25.320;2023-02-22T12:22:55;96912.47;;;24.64;27.55
20115;BME280;10218;42.874;25.320;2023-02-22T12:25:34;96902.34;;;24.54;27.66
20115;BME280;10218;42.874;25.320;2023-02-22T12:28:10;96900.00;;;24.21;28.74
20115;BME280;10218;42.874;25.320;2023-02-22T12:36:50;96890.78;;;26.26;27.61
20115;BME280;10218;42.874;25.320;2023-02-22T12:42:14;96882.56;;;26.21;28.17
20115;BME280;10218;42.874;25.320;2023-02-22T12:44:46;96887.56;;;25.78;28.10
20115;BME280;10218;42.874;25.320;2023-02-22T12:47:24;96885.75;;;23.72;30.42
20115;BME280;10218;42.874;25.320;2023-02-22T12:50:01;96896.59;;;23.62;30.49
20115;BME280;10218;42.874;25.320;2023-02-22T12:52:52;96887.50;;;24.35;30.24
20115;BME280;10218;42.874;25.320;2023-02-22T12:55:30;96888.31;;;26.24;28.30
20115;BME280;10218;42.874;25.320;2023-02-22T13:03:37;96887.44;;;24.20;30.26
20115;BME280;10218;42.874;25.320;2023-02-22T13:06:23;96886.66;;;26.23;28.23
20115;BME280;10218;42.874;25.320;2023-02-22T13:13:06;96897.13;;;26.80;27.79
20115;BME280;10218;42.874;25.320;2023-02-22T13:21:14;96881.22;;;26.88;27.26
20115;BME280;10218;42.874;25.320;2023-02-22T13:28:47;96876.94;;;26.61;27.29
20115;BME280;10218;42.874;25.320;2023-02-22T13:37:28;96887.62;;;27.17;26.79
20115;BME280;10218;42.874;25.320;2023-02-22T13:42:55;96895.50;;;25.65;28.06
20115;BME280;10218;42.874;25.320;2023-02-22T13:56:53;96891.47;;;24.12;29.88
20115;BME280;10218;42.874;25.320;2023-02-22T13:59:29;96886.63;;;26.38;27.24
20115;BME280;10218;42.874;25.320;2023-02-22T14:01:57;96890.03;;;25.75;28.07
20115;BME280;10218;42.874;25.320;2023-02-22T14:06:55;96901.22;;;25.48;27.99
20115;BME280;10218;42.874;25.320;2023-02-22T14:17:57;96901.75;;;25.50;27.91
20115;BME280;10218;42.874;25.320;2023-02-22T14:20:32;96904.13;;;22.96;30.66
20115;BME280;10218;42.874;25.320;2023-02-22T14:26:12;96908.84;;;25.31;28.07
20115;BME280;10218;42.874;25.320;2023-02-22T14:31:29;96887.50;;;26.88;26.89
20115;BME280;10218;42.874;25.320;2023-02-22T14:34:11;96902.38;;;26.67;26.91
20115;BME280;10218;42.874;25.320;2023-02-22T14:36:58;96901.19;;;25.18;28.62
20115;BME280;10218;42.874;25.320;2023-02-22T14:42:07;96906.69;;;25.88;28.25
20115;BME280;10218;42.874;25.320;2023-02-22T14:50:13;96895.09;;;26.42;27.72
20115;BME280;10218;42.874;25.320;2023-02-22T14:52:44;96902.00;;;25.08;29.02
20115;BME280;10218;42.874;25.320;2023-02-22T14:55:24;96901.97;;;24.31;30.56
20115;BME280;10218;42.874;25.320;2023-02-22T14:57:58;96901.28;;;23.39;31.45
20115;BME280;10218;42.874;25.320;2023-02-22T15:00:37;96890.69;;;22.19;33.16
20115;BME280;10218;42.874;25.320;2023-02-22T15:06:21;96904.22;;;23.60;31.13
20115;BME280;10218;42.874;25.320;2023-02-22T15:09:10;96906.72;;;23.39;30.88
20115;BME280;10218;42.874;25.320;2023-02-22T15:11:40;96895.38;;;21.35;33.63
20115;BME280;10218;42.874;25.320;2023-02-22T15:14:20;96913.22;;;23.60;31.38
20115;BME280;10218;42.874;25.320;2023-02-22T15:16:55;96908.63;;;21.31;34.19
20115;BME280;10218;42.874;25.320;2023-02-22T15:19:26;96898.47;;;21.77;33.50
20115;BME280;10218;42.874;25.320;2023-02-22T15:21:56;96905.13;;;20.74;35.03
20115;BME280;10218;42.874;25.320;2023-02-22T15:24:29;96906.53;;;20.37;35.84
20115;BME280;10218;42.874;25.320;2023-02-22T15:27:06;96906.78;;;19.42;37.27
20115;BME280;10218;42.874;25.320;2023-02-22T15:29:42;96900.94;;;18.62;39.35
20115;BME280;10218;42.874;25.320;2023-02-22T15:32:34;96912.75;;;17.77;40.68
20115;BME280;10218;42.874;25.320;2023-02-22T15:35:20;96893.75;;;18.02;40.48
20115;BME280;10218;42.874;25.320;2023-02-22T15:38:01;96905.00;;;17.99;40.83
20115;BME280;10218;42.874;25.320;2023-02-22T15:40:29;96908.16;;;18.14;40.88
20115;BME280;10218;42.874;25.320;2023-02-22T15:43:05;96906.50;;;17.51;41.85
20115;BME280;10218;42.874;25.320;2023-02-22T15:45:34;96911.97;;;17.70;42.03
20115;BME280;10218;42.874;25.320;2023-02-22T15:48:09;96911.78;;;18.08;41.56
20115;BME280;10218;42.874;25.320;2023-02-22T15:50:36;96913.06;;;18.23;41.29
20115;BME280;10218;42.874;25.320;2023-02-22T15:53:23;96912.06;;;18.00;41.29
20115;BME280;10218;42.874;25.320;2023-02-22T15:55:58;96918.12;;;17.52;43.06
20115;BME280;10218;42.874;25.320;2023-02-22T15:58:27;96916.19;;;17.84;42.62
20115;BME280;10218;42.874;25.320;2023-02-22T16:03:56;96914.37;;;17.78;42.66
20115;BME280;10218;42.874;25.320;2023-02-22T16:06:52;96920.22;;;17.25;43.89
20115;BME280;10218;42.874;25.320;2023-02-22T16:09:27;96924.88;;;16.36;46.25
20115;BME280;10218;42.874;25.320;2023-02-22T16:14:47;96925.72;;;17.12;45.46
20115;BME280;10218;42.874;25.320;2023-02-22T16:19:52;96932.38;;;15.69;50.66
20115;BME280;10218;42.874;25.320;2023-02-22T16:22:26;96926.50;;;15.99;49.01
20115;BME280;10218;42.874;25.320;2023-02-22T16:25:14;96937.87;;;16.01;49.28